sensor_id;sensor_type;location;lat;lon;timestamp;P1;durP1;ratioP1;P2;durP2;ratioP2
34204;SDS011;20471;49.680;20.074;2022-12-05T00:03:52;217.43;;;107.37;;
34204;SDS011;20471;49.680;20.074;2022-12-05T00:06:21;206.07;;;105.87;;
34204;SDS011;20471;49.680;20.074;2022-12-05T00:08:49;216.33;;;106.78;;
34204;SDS011;20471;49.680;20.074;2022-12-05T00:11:17;210.65;;;105.10;;
34204;SDS011;20471;49.680;20.074;2022-12-05T00:13:50;208.25;;;108.05;;
34204;SDS011;20471;49.680;20.074;2022-12-05T00:16:20;216.20;;;114.55;;
34204;SDS011;20471;49.680;20.074;2022-12-05T00:18:49;227.00;;;117.40;;
34204;SDS011;20471;49.680;20.074;2022-12-05T00:21:20;237.05;;;118.08;;
34204;SDS011;20471;49.680;20.074;2022-12-05T00:23:50;226.42;;;121.37;;
34204;SDS011;20471;49.680;20.074;2022-12-05T00:26:18;226.52;;;117.90;;
34204;SDS011;20471;49.680;20.074;2022-12-05T00:28:45;232.40;;;118.47;;
34204;SDS011;20471;49.680;20.074;2022-12-05T00:31:13;216.48;;;113.92;;
34204;SDS011;20471;49.680;20.074;2022-12-05T00:33:42;220.73;;;110.52;;
34204;SDS011;20471;49.680;20.074;2022-12-05T00:36:12;222.70;;;111.57;;
34204;SDS011;20471;49.680;20.074;2022-12-05T00:38:42;212.75;;;108.30;;
34204;SDS011;20471;49.680;20.074;2022-12-05T00:43:40;221.85;;;111.37;;
34204;SDS011;20471;49.680;20.074;2022-12-05T00:46:08;211.90;;;110.12;;
34204;SDS011;20471;49.680;20.074;2022-12-05T00:48:39;219.28;;;111.57;;
34204;SDS011;20471;49.680;20.074;2022-12-05T00:51:13;216.78;;;113.30;;
34204;SDS011;20471;49.680;20.074;2022-12-05T00:53:43;219.00;;;115.17;;
34204;SDS011;20471;49.680;20.074;2022-12-05T00:56:12;215.68;;;112.22;;
34204;SDS011;20471;49.680;20.074;2022-12-05T00:58:42;204.63;;;109.83;;
34204;SDS011;20471;49.680;20.074;2022-12-05T01:01:11;212.25;;;110.88;;
34204;SDS011;20471;49.680;20.074;2022-12-05T01:03:47;205.27;;;106.78;;
34204;SDS011;20471;49.680;20.074;2022-12-05T01:06:17;211.07;;;110.45;;
34204;SDS011;20471;49.680;20.074;2022-12-05T01:08:44;214.08;;;112.80;;
34204;SDS011;20471;49.680;20.074;2022-12-05T01:11:11;209.18;;;112.12;;
34204;SDS011;20471;49.680;20.074;2022-12-05T01:13:41;216.60;;;114.00;;
34204;SDS011;20471;49.680;20.074;2022-12-05T01:18:48;195.12;;;104.10;;
34204;SDS011;20471;49.680;20.074;2022-12-05T01:21:15;192.57;;;99.65;;
34204;SDS011;20471;49.680;20.074;2022-12-05T01:23:43;177.75;;;98.87;;
34204;SDS011;20471;49.680;20.074;2022-12-05T01:26:10;173.30;;;96.70;;
34204;SDS011;20471;49.680;20.074;2022-12-05T01:28:39;178.47;;;98.58;;
34204;SDS011;20471;49.680;20.074;2022-12-05T01:31:07;184.78;;;99.52;;
34204;SDS011;20471;49.680;20.074;2022-12-05T01:33:41;181.78;;;98.67;;
34204;SDS011;20471;49.680;20.074;2022-12-05T01:36:09;175.80;;;96.90;;
34204;SDS011;20471;49.680;20.074;2022-12-05T01:38:38;178.75;;;98.62;;
34204;SDS011;20471;49.680;20.074;2022-12-05T01:41:09;181.67;;;97.22;;
34204;SDS011;20471;49.680;20.074;2022-12-05T01:46:30;182.47;;;99.30;;
34204;SDS011;20471;49.680;20.074;2022-12-05T01:51:48;180.37;;;101.25;;
34204;SDS011;20471;49.680;20.074;2022-12-05T01:54:18;185.10;;;99.50;;
34204;SDS011;20471;49.680;20.074;2022-12-05T01:56:48;182.88;;;99.92;;
34204;SDS011;20471;49.680;20.074;2022-12-05T01:59:18;179.10;;;95.92;;
34204;SDS011;20471;49.680;20.074;2022-12-05T02:01:46;173.30;;;96.15;;
34204;SDS011;20471;49.680;20.074;2022-12-05T02:04:13;183.40;;;98.50;;
34204;SDS011;20471;49.680;20.074;2022-12-05T02:06:40;186.52;;;97.08;;
34204;SDS011;20471;49.680;20.074;2022-12-05T02:09:08;192.80;;;100.25;;
34204;SDS011;20471;49.680;20.074;2022-12-05T02:11:34;200.35;;;104.95;;
34204;SDS011;20471;49.680;20.074;2022-12-05T02:14:14;199.77;;;106.58;;
34204;SDS011;20471;49.680;20.074;2022-12-05T02:16:57;194.67;;;104.70;;
34204;SDS011;20471;49.680;20.074;2022-12-05T02:25:38;172.40;;;91.53;;
34204;SDS011;20471;49.680;20.074;2022-12-05T02:28:43;179.63;;;95.80;;
34204;SDS011;20471;49.680;20.074;2022-12-05T02:34:09;164.90;;;89.67;;
34204;SDS011;20471;49.680;20.074;2022-12-05T02:39:39;173.55;;;95.62;;
34204;SDS011;20471;49.680;20.074;2022-12-05T02:45:04;182.82;;;96.40;;
34204;SDS011;20471;49.680;20.074;2022-12-05T02:47:36;186.22;;;96.95;;
34204;SDS011;20471;49.680;20.074;2022-12-05T02:50:06;176.85;;;97.15;;
34204;SDS011;20471;49.680;20.074;2022-12-05T02:52:36;171.35;;;94.40;;
34204;SDS011;20471;49.680;20.074;2022-12-05T02:55:04;175.95;;;94.92;;
34204;SDS011;20471;49.680;20.074;2022-12-05T02:57:34;173.40;;;96.30;;
34204;SDS011;20471;49.680;20.074;2022-12-05T03:00:04;179.57;;;96.42;;
34204;SDS011;20471;49.680;20.074;2022-12-05T03:02:32;173.78;;;91.65;;
34204;SDS011;20471;49.680;20.074;2022-12-05T03:05:09;163.32;;;90.70;;
34204;SDS011;20471;49.680;20.074;2022-12-05T03:07:57;162.10;;;88.37;;
34204;SDS011;20471;49.680;20.074;2022-12-05T03:10:29;161.12;;;87.35;;
34204;SDS011;20471;49.680;20.074;2022-12-05T03:13:01;162.03;;;87.20;;
34204;SDS011;20471;49.680;20.074;2022-12-05T03:18:03;171.67;;;91.77;;
34204;SDS011;20471;49.680;20.074;2022-12-05T03:20:46;170.02;;;95.32;;
34204;SDS011;20471;49.680;20.074;2022-12-05T03:23:24;173.68;;;94.80;;
34204;SDS011;20471;49.680;20.074;2022-12-05T03:26:00;169.80;;;96.45;;
34204;SDS011;20471;49.680;20.074;2022-12-05T03:31:40;165.28;;;93.52;;
34204;SDS011;20471;49.680;20.074;2022-12-05T03:34:47;152.02;;;87.42;;
34204;SDS011;20471;49.680;20.074;2022-12-05T03:37:21;152.62;;;88.78;;
34204;SDS011;20471;49.680;20.074;2022-12-05T03:40:14;150.05;;;88.17;;
34204;SDS011;20471;49.680;20.074;2022-12-05T03:45:38;146.95;;;83.67;;
34204;SDS011;20471;49.680;20.074;2022-12-05T03:48:09;145.77;;;81.30;;
34204;SDS011;20471;49.680;20.074;2022-12-05T03:50:46;145.50;;;82.22;;
34204;SDS011;20471;49.680;20.074;2022-12-05T03:56:00;148.80;;;83.42;;
34204;SDS011;20471;49.680;20.074;2022-12-05T03:58:40;146.70;;;78.83;;
34204;SDS011;20471;49.680;20.074;2022-12-05T04:01:10;137.85;;;78.22;;
34204;SDS011;20471;49.680;20.074;2022-12-05T04:03:45;135.15;;;80.42;;
34204;SDS011;20471;49.680;20.074;2022-12-05T04:11:45;133.40;;;73.55;;
34204;SDS011;20471;49.680;20.074;2022-12-05T04:14:21;132.25;;;75.37;;
34204;SDS011;20471;49.680;20.074;2022-12-05T04:16:53;142.18;;;76.72;;
34204;SDS011;20471;49.680;20.074;2022-12-05T04:19:40;130.27;;;75.10;;
34204;SDS011;20471;49.680;20.074;2022-12-05T04:22:44;131.70;;;75.08;;
34204;SDS011;20471;49.680;20.074;2022-12-05T04:25:11;129.05;;;75.87;;
34204;SDS011;20471;49.680;20.074;2022-12-05T04:30:38;121.22;;;69.05;;
34204;SDS011;20471;49.680;20.074;2022-12-05T04:38:59;119.08;;;65.62;;
34204;SDS011;20471;49.680;20.074;2022-12-05T04:41:37;115.55;;;65.52;;
34204;SDS011;20471;49.680;20.074;2022-12-05T04:44:08;104.67;;;61.00;;
34204;SDS011;20471;49.680;20.074;2022-12-05T04:46:38;103.32;;;58.02;;
34204;SDS011;20471;49.680;20.074;2022-12-05T04:49:10;97.80;;;58.70;;
34204;SDS011;20471;49.680;20.074;2022-12-05T04:51:40;102.25;;;58.33;;
34204;SDS011;20471;49.680;20.074;2022-12-05T04:56:41;97.42;;;56.13;;
34204;SDS011;20471;49.680;20.074;2022-12-05T04:59:11;107.30;;;61.83;;
34204;SDS011;20471;49.680;20.074;2022-12-05T05:01:38;102.42;;;61.65;;
34204;SDS011;20471;49.680;20.074;2022-12-05T05:04:13;119.95;;;67.75;;
34204;SDS011;20471;49.680;20.074;2022-12-05T05:06:56;120.75;;;70.17;;
34204;SDS011;20471;49.680;20.074;2022-12-05T05:09:22;121.60;;;70.50;;
34204;SDS011;20471;49.680;20.074;2022-12-05T05:11:49;119.37;;;71.60;;
34204;SDS011;20471;49.680;20.074;2022-12-05T05:14:16;118.25;;;70.05;;
34204;SDS011;20471;49.680;20.074;2022-12-05T05:16:42;115.25;;;68.65;;
34204;SDS011;20471;49.680;20.074;2022-12-05T05:19:09;118.57;;;70.50;;
34204;SDS011;20471;49.680;20.074;2022-12-05T05:21:38;110.55;;;66.22;;
34204;SDS011;20471;49.680;20.074;2022-12-05T05:24:06;105.80;;;60.73;;
34204;SDS011;20471;49.680;20.074;2022-12-05T05:26:36;107.22;;;62.50;;
34204;SDS011;20471;49.680;20.074;2022-12-05T05:29:05;112.62;;;65.80;;
34204;SDS011;20471;49.680;20.074;2022-12-05T05:31:34;110.17;;;66.02;;
34204;SDS011;20471;49.680;20.074;2022-12-05T05:34:02;109.48;;;65.55;;
34204;SDS011;20471;49.680;20.074;2022-12-05T05:36:30;105.25;;;63.02;;
34204;SDS011;20471;49.680;20.074;2022-12-05T05:38:58;110.48;;;65.57;;
34204;SDS011;20471;49.680;20.074;2022-12-05T05:41:29;107.43;;;63.92;;
34204;SDS011;20471;49.680;20.074;2022-12-05T05:43:59;108.97;;;65.52;;
34204;SDS011;20471;49.680;20.074;2022-12-05T05:46:29;104.10;;;64.75;;
34204;SDS011;20471;49.680;20.074;2022-12-05T05:48:58;108.15;;;64.37;;
34204;SDS011;20471;49.680;20.074;2022-12-05T05:51:25;106.87;;;65.37;;
34204;SDS011;20471;49.680;20.074;2022-12-05T05:53:54;105.15;;;65.05;;
34204;SDS011;20471;49.680;20.074;2022-12-05T05:56:22;102.70;;;63.63;;
34204;SDS011;20471;49.680;20.074;2022-12-05T06:01:26;103.83;;;59.73;;
34204;SDS011;20471;49.680;20.074;2022-12-05T06:03:54;98.25;;;58.65;;
34204;SDS011;20471;49.680;20.074;2022-12-05T06:06:21;97.37;;;60.65;;
34204;SDS011;20471;49.680;20.074;2022-12-05T06:08:48;95.75;;;60.12;;
34204;SDS011;20471;49.680;20.074;2022-12-05T06:13:49;87.55;;;55.78;;
34204;SDS011;20471;49.680;20.074;2022-12-05T06:16:16;95.77;;;58.02;;
34204;SDS011;20471;49.680;20.074;2022-12-05T06:18:43;93.72;;;56.30;;
34204;SDS011;20471;49.680;20.074;2022-12-05T06:21:10;93.65;;;56.33;;
34204;SDS011;20471;49.680;20.074;2022-12-05T06:23:37;88.62;;;54.95;;
34204;SDS011;20471;49.680;20.074;2022-12-05T06:26:04;95.42;;;57.40;;
34204;SDS011;20471;49.680;20.074;2022-12-05T06:28:35;104.97;;;62.90;;
34204;SDS011;20471;49.680;20.074;2022-12-05T06:31:11;105.47;;;64.97;;
34204;SDS011;20471;49.680;20.074;2022-12-05T06:33:41;101.00;;;62.88;;
34204;SDS011;20471;49.680;20.074;2022-12-05T06:36:13;107.70;;;65.97;;
34204;SDS011;20471;49.680;20.074;2022-12-05T06:38:42;110.90;;;64.37;;
34204;SDS011;20471;49.680;20.074;2022-12-05T06:41:10;107.32;;;66.15;;
34204;SDS011;20471;49.680;20.074;2022-12-05T06:43:39;103.60;;;62.08;;
34204;SDS011;20471;49.680;20.074;2022-12-05T06:46:07;107.43;;;62.03;;
34204;SDS011;20471;49.680;20.074;2022-12-05T06:48:37;110.05;;;63.85;;
34204;SDS011;20471;49.680;20.074;2022-12-05T06:51:04;117.60;;;66.00;;
34204;SDS011;20471;49.680;20.074;2022-12-05T06:53:36;110.50;;;64.22;;
34204;SDS011;20471;49.680;20.074;2022-12-05T06:56:04;114.45;;;67.80;;
34204;SDS011;20471;49.680;20.074;2022-12-05T06:58:36;121.22;;;68.28;;
34204;SDS011;20471;49.680;20.074;2022-12-05T07:01:02;116.97;;;68.60;;
34204;SDS011;20471;49.680;20.074;2022-12-05T07:03:47;118.55;;;67.10;;
34204;SDS011;20471;49.680;20.074;2022-12-05T07:06:15;107.32;;;65.62;;
34204;SDS011;20471;49.680;20.074;2022-12-05T07:08:42;111.37;;;65.62;;
34204;SDS011;20471;49.680;20.074;2022-12-05T07:11:09;106.90;;;63.73;;
34204;SDS011;20471;49.680;20.074;2022-12-05T07:13:36;110.28;;;65.78;;
34204;SDS011;20471;49.680;20.074;2022-12-05T07:16:03;113.50;;;64.72;;
34204;SDS011;20471;49.680;20.074;2022-12-05T07:18:31;110.30;;;65.95;;
34204;SDS011;20471;49.680;20.074;2022-12-05T07:20:59;112.30;;;68.55;;
34204;SDS011;20471;49.680;20.074;2022-12-05T07:23:29;115.67;;;68.05;;
34204;SDS011;20471;49.680;20.074;2022-12-05T07:25:56;108.07;;;65.05;;
34204;SDS011;20471;49.680;20.074;2022-12-05T07:28:23;114.95;;;65.03;;
34204;SDS011;20471;49.680;20.074;2022-12-05T07:30:59;103.87;;;61.85;;
34204;SDS011;20471;49.680;20.074;2022-12-05T07:33:27;103.17;;;62.15;;
34204;SDS011;20471;49.680;20.074;2022-12-05T07:36:08;106.00;;;64.95;;
34204;SDS011;20471;49.680;20.074;2022-12-05T07:38:37;108.90;;;65.42;;
34204;SDS011;20471;49.680;20.074;2022-12-05T07:41:06;109.95;;;62.93;;
34204;SDS011;20471;49.680;20.074;2022-12-05T07:43:36;103.53;;;60.67;;
34204;SDS011;20471;49.680;20.074;2022-12-05T07:46:03;116.00;;;65.03;;
34204;SDS011;20471;49.680;20.074;2022-12-05T07:48:31;117.08;;;71.25;;
34204;SDS011;20471;49.680;20.074;2022-12-05T07:53:28;133.63;;;77.45;;
34204;SDS011;20471;49.680;20.074;2022-12-05T07:56:00;146.05;;;87.70;;
34204;SDS011;20471;49.680;20.074;2022-12-05T07:58:30;150.68;;;89.00;;
34204;SDS011;20471;49.680;20.074;2022-12-05T08:01:07;145.47;;;86.55;;
34204;SDS011;20471;49.680;20.074;2022-12-05T08:03:37;165.40;;;95.65;;
34204;SDS011;20471;49.680;20.074;2022-12-05T08:06:04;185.55;;;104.53;;
34204;SDS011;20471;49.680;20.074;2022-12-05T08:08:34;187.40;;;107.63;;
34204;SDS011;20471;49.680;20.074;2022-12-05T08:11:06;174.77;;;108.25;;
34204;SDS011;20471;49.680;20.074;2022-12-05T08:13:39;174.07;;;106.32;;
34204;SDS011;20471;49.680;20.074;2022-12-05T08:16:08;165.65;;;100.15;;
34204;SDS011;20471;49.680;20.074;2022-12-05T08:18:37;156.00;;;94.45;;
34204;SDS011;20471;49.680;20.074;2022-12-05T08:21:05;147.53;;;89.13;;
34204;SDS011;20471;49.680;20.074;2022-12-05T08:23:35;169.07;;;92.57;;
34204;SDS011;20471;49.680;20.074;2022-12-05T08:26:03;147.30;;;86.65;;
34204;SDS011;20471;49.680;20.074;2022-12-05T08:28:33;139.03;;;79.55;;
34204;SDS011;20471;49.680;20.074;2022-12-05T08:31:04;123.18;;;71.17;;
34204;SDS011;20471;49.680;20.074;2022-12-05T08:33:34;102.97;;;61.37;;
34204;SDS011;20471;49.680;20.074;2022-12-05T08:36:02;100.00;;;57.48;;
34204;SDS011;20471;49.680;20.074;2022-12-05T08:38:32;111.28;;;63.83;;
34204;SDS011;20471;49.680;20.074;2022-12-05T08:41:00;144.50;;;78.17;;
34204;SDS011;20471;49.680;20.074;2022-12-05T08:43:28;140.57;;;81.57;;
34204;SDS011;20471;49.680;20.074;2022-12-05T08:45:56;136.47;;;80.47;;
34204;SDS011;20471;49.680;20.074;2022-12-05T08:48:24;146.60;;;82.05;;
34204;SDS011;20471;49.680;20.074;2022-12-05T08:50:53;132.22;;;78.05;;
34204;SDS011;20471;49.680;20.074;2022-12-05T08:53:19;119.33;;;70.83;;
34204;SDS011;20471;49.680;20.074;2022-12-05T08:55:46;123.90;;;72.03;;
34204;SDS011;20471;49.680;20.074;2022-12-05T08:58:13;130.07;;;73.20;;
34204;SDS011;20471;49.680;20.074;2022-12-05T09:00:40;113.05;;;68.25;;
34204;SDS011;20471;49.680;20.074;2022-12-05T09:03:08;111.12;;;67.92;;
34204;SDS011;20471;49.680;20.074;2022-12-05T09:05:36;105.65;;;64.87;;
34204;SDS011;20471;49.680;20.074;2022-12-05T09:08:04;112.47;;;66.10;;
34204;SDS011;20471;49.680;20.074;2022-12-05T09:10:31;100.25;;;64.20;;
34204;SDS011;20471;49.680;20.074;2022-12-05T09:12:58;126.38;;;73.92;;
34204;SDS011;20471;49.680;20.074;2022-12-05T09:15:25;114.50;;;68.17;;
34204;SDS011;20471;49.680;20.074;2022-12-05T09:17:51;122.53;;;71.30;;
34204;SDS011;20471;49.680;20.074;2022-12-05T09:20:18;107.15;;;66.28;;
34204;SDS011;20471;49.680;20.074;2022-12-05T09:22:45;116.30;;;67.60;;
34204;SDS011;20471;49.680;20.074;2022-12-05T09:25:12;122.58;;;73.45;;
34204;SDS011;20471;49.680;20.074;2022-12-05T09:27:38;111.00;;;66.15;;
34204;SDS011;20471;49.680;20.074;2022-12-05T09:30:05;105.50;;;64.40;;
34204;SDS011;20471;49.680;20.074;2022-12-05T09:32:34;110.57;;;66.10;;
34204;SDS011;20471;49.680;20.074;2022-12-05T09:35:00;101.87;;;64.27;;
34204;SDS011;20471;49.680;20.074;2022-12-05T09:37:27;90.53;;;56.33;;
34204;SDS011;20471;49.680;20.074;2022-12-05T09:39:53;79.40;;;49.65;;
34204;SDS011;20471;49.680;20.074;2022-12-05T09:42:34;78.87;;;48.65;;
34204;SDS011;20471;49.680;20.074;2022-12-05T09:45:13;72.53;;;46.23;;
34204;SDS011;20471;49.680;20.074;2022-12-05T09:50:45;62.10;;;39.45;;
34204;SDS011;20471;49.680;20.074;2022-12-05T09:53:28;59.35;;;37.03;;
34204;SDS011;20471;49.680;20.074;2022-12-05T09:56:03;57.67;;;34.03;;
34204;SDS011;20471;49.680;20.074;2022-12-05T09:58:52;61.75;;;36.48;;
34204;SDS011;20471;49.680;20.074;2022-12-05T10:07:14;59.38;;;36.05;;
34204;SDS011;20471;49.680;20.074;2022-12-05T10:10:02;63.98;;;34.00;;
34204;SDS011;20471;49.680;20.074;2022-12-05T10:15:41;41.37;;;26.93;;
34204;SDS011;20471;49.680;20.074;2022-12-05T10:21:05;44.75;;;26.70;;
34204;SDS011;20471;49.680;20.074;2022-12-05T10:23:58;46.10;;;27.48;;
34204;SDS011;20471;49.680;20.074;2022-12-05T10:31:56;51.85;;;28.32;;
34204;SDS011;20471;49.680;20.074;2022-12-05T10:34:43;40.60;;;23.60;;
34204;SDS011;20471;49.680;20.074;2022-12-05T10:39:45;37.25;;;22.32;;
34204;SDS011;20471;49.680;20.074;2022-12-05T10:42:18;34.40;;;21.20;;
34204;SDS011;20471;49.680;20.074;2022-12-05T10:44:57;34.83;;;22.05;;
34204;SDS011;20471;49.680;20.074;2022-12-05T10:47:31;30.90;;;20.02;;
34204;SDS011;20471;49.680;20.074;2022-12-05T10:50:00;28.47;;;18.23;;
34204;SDS011;20471;49.680;20.074;2022-12-05T10:52:31;24.95;;;16.67;;
34204;SDS011;20471;49.680;20.074;2022-12-05T10:54:59;26.82;;;17.92;;
34204;SDS011;20471;49.680;20.074;2022-12-05T10:57:29;29.50;;;18.90;;
34204;SDS011;20471;49.680;20.074;2022-12-05T10:59:56;35.75;;;21.95;;
34204;SDS011;20471;49.680;20.074;2022-12-05T11:04:58;34.65;;;20.95;;
34204;SDS011;20471;49.680;20.074;2022-12-05T11:07:29;30.02;;;18.52;;
34204;SDS011;20471;49.680;20.074;2022-12-05T11:10:04;27.58;;;17.50;;
34204;SDS011;20471;49.680;20.074;2022-12-05T11:12:50;21.70;;;15.48;;
34204;SDS011;20471;49.680;20.074;2022-12-05T11:17:51;23.83;;;15.95;;
34204;SDS011;20471;49.680;20.074;2022-12-05T11:22:53;27.07;;;18.10;;
34204;SDS011;20471;49.680;20.074;2022-12-05T11:25:24;26.17;;;18.32;;
34204;SDS011;20471;49.680;20.074;2022-12-05T11:27:55;34.70;;;21.40;;
34204;SDS011;20471;49.680;20.074;2022-12-05T11:30:58;38.85;;;27.52;;
34204;SDS011;20471;49.680;20.074;2022-12-05T11:33:29;30.55;;;21.70;;
34204;SDS011;20471;49.680;20.074;2022-12-05T11:36:09;23.52;;;16.42;;
34204;SDS011;20471;49.680;20.074;2022-12-05T11:38:47;19.15;;;14.87;;
34204;SDS011;20471;49.680;20.074;2022-12-05T11:52:56;26.55;;;16.42;;
34204;SDS011;20471;49.680;20.074;2022-12-05T12:07:32;26.93;;;17.55;;
34204;SDS011;20471;49.680;20.074;2022-12-05T12:10:20;26.05;;;17.70;;
34204;SDS011;20471;49.680;20.074;2022-12-05T12:22:21;19.67;;;14.25;;
34204;SDS011;20471;49.680;20.074;2022-12-05T12:25:22;17.60;;;12.35;;
34204;SDS011;20471;49.680;20.074;2022-12-05T12:28:01;15.45;;;10.25;;
34204;SDS011;20471;49.680;20.074;2022-12-05T12:51:00;11.48;;;8.53;;
34204;SDS011;20471;49.680;20.074;2022-12-05T12:56:15;12.33;;;8.83;;
34204;SDS011;20471;49.680;20.074;2022-12-05T12:58:49;14.18;;;9.23;;
34204;SDS011;20471;49.680;20.074;2022-12-05T13:01:30;20.27;;;13.18;;
34204;SDS011;20471;49.680;20.074;2022-12-05T13:04:14;23.73;;;14.07;;
34204;SDS011;20471;49.680;20.074;2022-12-05T13:09:49;29.37;;;16.45;;
34204;SDS011;20471;49.680;20.074;2022-12-05T13:12:43;27.98;;;15.98;;
34204;SDS011;20471;49.680;20.074;2022-12-05T13:17:43;24.87;;;14.63;;
34204;SDS011;20471;49.680;20.074;2022-12-05T13:20:16;29.65;;;17.55;;
34204;SDS011;20471;49.680;20.074;2022-12-05T13:22:46;37.73;;;21.23;;
34204;SDS011;20471;49.680;20.074;2022-12-05T13:25:15;36.30;;;18.37;;
34204;SDS011;20471;49.680;20.074;2022-12-05T13:27:58;35.10;;;19.12;;
34204;SDS011;20471;49.680;20.074;2022-12-05T13:30:28;33.42;;;18.60;;
34204;SDS011;20471;49.680;20.074;2022-12-05T13:32:57;22.17;;;15.08;;
34204;SDS011;20471;49.680;20.074;2022-12-05T13:35:29;24.63;;;15.72;;
34204;SDS011;20471;49.680;20.074;2022-12-05T13:38:28;24.55;;;16.25;;
34204;SDS011;20471;49.680;20.074;2022-12-05T13:41:17;29.77;;;16.95;;
34204;SDS011;20471;49.680;20.074;2022-12-05T13:44:02;39.42;;;23.12;;
34204;SDS011;20471;49.680;20.074;2022-12-05T13:46:32;35.25;;;22.62;;
34204;SDS011;20471;49.680;20.074;2022-12-05T13:51:44;39.27;;;22.85;;
34204;SDS011;20471;49.680;20.074;2022-12-05T13:56:52;34.65;;;19.75;;
34204;SDS011;20471;49.680;20.074;2022-12-05T14:07:55;36.75;;;20.12;;
34204;SDS011;20471;49.680;20.074;2022-12-05T14:15:43;82.47;;;46.55;;
34204;SDS011;20471;49.680;20.074;2022-12-05T14:18:20;84.55;;;47.40;;
34204;SDS011;20471;49.680;20.074;2022-12-05T14:24:01;72.92;;;41.63;;
34204;SDS011;20471;49.680;20.074;2022-12-05T14:32:46;51.48;;;31.35;;
34204;SDS011;20471;49.680;20.074;2022-12-05T14:35:15;49.08;;;31.07;;
34204;SDS011;20471;49.680;20.074;2022-12-05T14:37:50;47.23;;;29.23;;
34204;SDS011;20471;49.680;20.074;2022-12-05T14:45:56;66.65;;;39.95;;
34204;SDS011;20471;49.680;20.074;2022-12-05T14:48:29;72.22;;;43.08;;
34204;SDS011;20471;49.680;20.074;2022-12-05T14:51:00;67.40;;;42.70;;
34204;SDS011;20471;49.680;20.074;2022-12-05T15:04:18;103.92;;;63.05;;
34204;SDS011;20471;49.680;20.074;2022-12-05T15:12:32;136.28;;;78.15;;
34204;SDS011;20471;49.680;20.074;2022-12-05T15:20:56;120.25;;;72.45;;
34204;SDS011;20471;49.680;20.074;2022-12-05T15:23:37;115.55;;;67.35;;
34204;SDS011;20471;49.680;20.074;2022-12-05T15:28:58;116.17;;;74.27;;
34204;SDS011;20471;49.680;20.074;2022-12-05T15:31:37;120.77;;;77.32;;
34204;SDS011;20471;49.680;20.074;2022-12-05T15:34:11;132.82;;;85.55;;
34204;SDS011;20471;49.680;20.074;2022-12-05T15:37:09;170.68;;;110.28;;
34204;SDS011;20471;49.680;20.074;2022-12-05T15:39:49;171.43;;;112.83;;
34204;SDS011;20471;49.680;20.074;2022-12-05T15:50:47;223.32;;;129.32;;
34204;SDS011;20471;49.680;20.074;2022-12-05T15:53:17;164.30;;;98.67;;
34204;SDS011;20471;49.680;20.074;2022-12-05T15:56:03;155.87;;;95.30;;
34204;SDS011;20471;49.680;20.074;2022-12-05T16:01:38;152.40;;;89.92;;
34204;SDS011;20471;49.680;20.074;2022-12-05T16:04:13;156.05;;;91.35;;
34204;SDS011;20471;49.680;20.074;2022-12-05T16:06:49;157.57;;;92.67;;
34204;SDS011;20471;49.680;20.074;2022-12-05T16:09:20;149.45;;;89.35;;
34204;SDS011;20471;49.680;20.074;2022-12-05T16:14:24;162.27;;;98.67;;
34204;SDS011;20471;49.680;20.074;2022-12-05T16:17:04;195.25;;;112.25;;
34204;SDS011;20471;49.680;20.074;2022-12-05T16:19:35;199.10;;;120.25;;
34204;SDS011;20471;49.680;20.074;2022-12-05T16:22:07;189.72;;;108.37;;
34204;SDS011;20471;49.680;20.074;2022-12-05T16:27:14;202.38;;;121.00;;
34204;SDS011;20471;49.680;20.074;2022-12-05T16:30:05;213.77;;;121.42;;
34204;SDS011;20471;49.680;20.074;2022-12-05T16:32:39;183.00;;;110.00;;
34204;SDS011;20471;49.680;20.074;2022-12-05T16:40:55;182.62;;;108.17;;
34204;SDS011;20471;49.680;20.074;2022-12-05T16:48:46;199.32;;;111.60;;
34204;SDS011;20471;49.680;20.074;2022-12-05T16:51:20;172.53;;;98.20;;
34204;SDS011;20471;49.680;20.074;2022-12-05T16:53:53;171.62;;;102.60;;
34204;SDS011;20471;49.680;20.074;2022-12-05T16:56:22;193.00;;;111.55;;
34204;SDS011;20471;49.680;20.074;2022-12-05T16:58:53;152.87;;;93.80;;
34204;SDS011;20471;49.680;20.074;2022-12-05T17:01:22;193.72;;;115.20;;
34204;SDS011;20471;49.680;20.074;2022-12-05T17:03:53;180.45;;;108.40;;
34204;SDS011;20471;49.680;20.074;2022-12-05T17:06:21;199.68;;;115.28;;
34204;SDS011;20471;49.680;20.074;2022-12-05T17:08:51;195.43;;;109.87;;
34204;SDS011;20471;49.680;20.074;2022-12-05T17:11:20;180.57;;;107.60;;
34204;SDS011;20471;49.680;20.074;2022-12-05T17:13:54;178.45;;;101.00;;
34204;SDS011;20471;49.680;20.074;2022-12-05T17:16:23;176.60;;;101.47;;
34204;SDS011;20471;49.680;20.074;2022-12-05T17:18:51;179.80;;;103.22;;
34204;SDS011;20471;49.680;20.074;2022-12-05T17:21:18;192.47;;;108.67;;
34204;SDS011;20471;49.680;20.074;2022-12-05T17:23:48;196.47;;;112.03;;
34204;SDS011;20471;49.680;20.074;2022-12-05T17:26:17;186.10;;;109.27;;
34204;SDS011;20471;49.680;20.074;2022-12-05T17:28:46;175.75;;;102.70;;
34204;SDS011;20471;49.680;20.074;2022-12-05T17:31:14;163.65;;;95.25;;
34204;SDS011;20471;49.680;20.074;2022-12-05T17:33:47;158.25;;;93.55;;
34204;SDS011;20471;49.680;20.074;2022-12-05T17:36:16;156.02;;;88.95;;
34204;SDS011;20471;49.680;20.074;2022-12-05T17:38:44;144.45;;;85.03;;
34204;SDS011;20471;49.680;20.074;2022-12-05T17:41:18;149.97;;;90.55;;
34204;SDS011;20471;49.680;20.074;2022-12-05T17:43:49;197.17;;;116.65;;
34204;SDS011;20471;49.680;20.074;2022-12-05T17:46:18;238.82;;;134.63;;
34204;SDS011;20471;49.680;20.074;2022-12-05T17:48:48;246.62;;;140.20;;
34204;SDS011;20471;49.680;20.074;2022-12-05T17:51:16;241.15;;;137.65;;
34204;SDS011;20471;49.680;20.074;2022-12-05T17:53:44;240.70;;;136.18;;
34204;SDS011;20471;49.680;20.074;2022-12-05T17:56:12;242.53;;;136.82;;
34204;SDS011;20471;49.680;20.074;2022-12-05T17:58:39;243.07;;;137.03;;
34204;SDS011;20471;49.680;20.074;2022-12-05T18:01:06;268.42;;;145.15;;
34204;SDS011;20471;49.680;20.074;2022-12-05T18:03:38;307.83;;;158.50;;
34204;SDS011;20471;49.680;20.074;2022-12-05T18:06:05;266.23;;;143.93;;
34204;SDS011;20471;49.680;20.074;2022-12-05T18:08:33;262.68;;;143.90;;
34204;SDS011;20471;49.680;20.074;2022-12-05T18:11:01;247.42;;;137.75;;
34204;SDS011;20471;49.680;20.074;2022-12-05T18:13:28;254.70;;;136.85;;
34204;SDS011;20471;49.680;20.074;2022-12-05T18:15:56;243.85;;;134.20;;
34204;SDS011;20471;49.680;20.074;2022-12-05T18:18:23;225.25;;;124.55;;
34204;SDS011;20471;49.680;20.074;2022-12-05T18:20:52;218.05;;;124.78;;
34204;SDS011;20471;49.680;20.074;2022-12-05T18:23:19;214.45;;;124.78;;
34204;SDS011;20471;49.680;20.074;2022-12-05T18:25:54;233.32;;;135.82;;